Time;durP1;ratioP1;P1;durP2;ratioP2;P2;SDS_P1;SDS_P2;PMS_P1;PMS_P2;Temp;Humidity;BMP_temperature;BMP_pressure;BME280_temperature;BME280_humidity;BME280_pressure;Samples;Min_cycle;Max_cycle;Signal;HPM_P1;HPM_P2
2022/08/31 00:03:59;;;;;;;1.17;0.60;;;16.10;99.90;;;;;;5002778;28;20479;-85
2022/08/31 00:06:25;;;;;;;1.23;0.68;;;16.10;99.90;;;;;;5034043;28;20053;-85
2022/08/31 00:08:51;;;;;;;1.30;0.57;;;16.10;99.90;;;;;;5016091;28;20396;-89
2022/08/31 00:11:26;;;;;;;1.55;0.65;;;16.00;99.90;;;;;;5016340;28;20057;-90
2022/08/31 00:13:53;;;;;;;2.67;0.80;;;16.00;99.90;;;;;;5016647;28;20392;-86
2022/08/31 00:16:19;;;;;;;3.80;0.80;;;16.00;99.90;;;;;;5016330;28;20448;-84
2022/08/31 00:18:45;;;;;;;1.25;0.70;;;15.90;99.90;;;;;;5015776;28;20057;-85
2022/08/31 00:21:11;;;;;;;1.55;0.77;;;15.80;99.90;;;;;;5033374;28;20128;-86
2022/08/31 00:23:37;;;;;;;0.93;0.70;;;15.80;99.90;;;;;;5016300;28;20107;-86
2022/08/31 00:26:03;;;;;;;1.73;0.52;;;15.80;99.90;;;;;;5016139;28;20487;-85
2022/08/31 00:28:28;;;;;;;1.83;0.82;;;15.80;99.90;;;;;;5016218;28;20041;-85
2022/08/31 00:30:54;;;;;;;2.03;0.93;;;15.80;99.90;;;;;;4999859;28;20049;-85
2022/08/31 00:33:20;;;;;;;4.10;0.93;;;15.80;99.90;;;;;;5015718;28;20053;-84
2022/08/31 00:35:45;;;;;;;1.77;0.63;;;15.80;99.90;;;;;;4999687;28;20494;-85
2022/08/31 00:38:11;;;;;;;2.17;0.85;;;15.80;99.90;;;;;;5033861;28;20045;-87
2022/08/31 00:40:38;;;;;;;2.47;0.60;;;15.80;99.90;;;;;;4983358;28;20490;-89
2022/08/31 00:43:04;;;;;;;3.13;0.60;;;15.80;99.90;;;;;;5033410;28;20049;-85
2022/08/31 00:45:29;;;;;;;1.98;0.68;;;15.80;99.90;;;;;;5016168;28;20045;-85
2022/08/31 00:47:55;;;;;;;1.33;0.70;;;15.80;99.90;;;;;;5015830;28;20513;-85
2022/08/31 00:50:23;;;;;;;2.28;0.55;;;15.80;99.90;;;;;;4983558;28;20049;-85
2022/08/31 00:52:56;;;;;;;2.95;0.70;;;15.80;99.90;;;;;;5015583;28;20049;-87
2022/08/31 00:55:34;;;;;;;2.38;0.60;;;15.80;99.90;;;;;;5015760;28;20072;-86
2022/08/31 00:58:04;;;;;;;0.90;0.60;;;15.80;99.90;;;;;;5033264;28;20450;-85
2022/08/31 01:00:30;;;;;;;1.13;0.60;;;15.70;99.90;;;;;;5015284;28;20046;-85
2022/08/31 01:02:58;;;;;;;1.02;0.60;;;15.70;99.90;;;;;;5033425;28;20051;-85
2022/08/31 01:05:24;;;;;;;0.85;0.63;;;15.70;99.90;;;;;;5015978;28;20057;-85
2022/08/31 01:07:51;;;;;;;2.97;0.60;;;15.70;99.90;;;;;;5015485;28;20064;-85
2022/08/31 01:10:20;;;;;;;2.40;0.60;;;15.60;99.90;;;;;;5033059;28;20495;-86
2022/08/31 01:12:48;;;;;;;2.00;0.60;;;15.70;99.90;;;;;;5015503;28;20049;-86
2022/08/31 01:15:14;;;;;;;1.42;0.60;;;15.70;99.90;;;;;;5015709;28;20114;-85
2022/08/31 01:17:43;;;;;;;2.45;0.70;;;15.60;99.90;;;;;;5032905;28;20116;-83
2022/08/31 01:20:23;;;;;;;1.35;0.57;;;15.60;99.90;;;;;;5033004;28;20042;-84
2022/08/31 01:23:07;;;;;;;1.30;0.57;;;15.60;99.90;;;;;;5015143;28;20491;-88
2022/08/31 01:25:35;;;;;;;0.93;0.50;;;15.60;99.90;;;;;;5032794;28;20060;-84
2022/08/31 01:28:04;;;;;;;1.73;0.57;;;15.60;99.90;;;;;;5033096;28;20049;-84
2022/08/31 01:30:30;;;;;;;1.00;0.30;;;15.50;99.90;;;;;;5032994;28;20108;-84
2022/08/31 01:32:56;;;;;;;0.85;0.50;;;15.50;99.90;;;;;;5017305;28;20059;-85
2022/08/31 01:35:22;;;;;;;0.65;0.40;;;15.50;99.90;;;;;;5036896;28;20125;-85
2022/08/31 01:37:48;;;;;;;1.15;0.40;;;15.50;99.90;;;;;;5018910;28;20045;-84
2022/08/31 01:40:13;;;;;;;1.75;0.38;;;15.40;99.90;;;;;;5036422;28;20041;-85
2022/08/31 01:42:39;;;;;;;1.10;0.50;;;15.40;99.90;;;;;;5019532;28;20487;-84
2022/08/31 01:45:06;;;;;;;1.33;0.50;;;15.40;99.90;;;;;;5018923;28;20080;-85
2022/08/31 01:47:31;;;;;;;0.80;0.50;;;15.30;99.90;;;;;;5002735;28;20049;-84
2022/08/31 01:49:57;;;;;;;0.90;0.50;;;15.30;99.90;;;;;;5036412;28;20045;-84
2022/08/31 01:52:24;;;;;;;1.27;0.40;;;15.20;99.90;;;;;;5018136;28;20151;-86
2022/08/31 01:54:49;;;;;;;0.60;0.40;;;15.10;99.90;;;;;;5018847;28;20087;-85
2022/08/31 01:57:15;;;;;;;1.80;0.47;;;15.00;99.90;;;;;;5019008;28;20498;-84
2022/08/31 01:59:41;;;;;;;0.50;0.30;;;15.00;99.90;;;;;;5036449;28;20441;-87
2022/08/31 02:02:07;;;;;;;1.50;0.43;;;14.90;99.90;;;;;;5019253;28;20087;-85
2022/08/31 02:04:32;;;;;;;2.17;0.38;;;14.90;99.90;;;;;;5018803;28;20049;-86
2022/08/31 02:07:00;;;;;;;0.80;0.52;;;14.80;99.90;;;;;;5018373;28;20051;-86
2022/08/31 02:09:28;;;;;;;1.23;0.40;;;14.80;99.90;;;;;;5018513;28;20490;-85
2022/08/31 02:11:54;;;;;;;2.65;0.50;;;14.80;99.90;;;;;;5036478;28;20042;-84
2022/08/31 02:14:20;;;;;;;1.75;0.40;;;14.70;99.90;;;;;;5018664;28;20574;-85
2022/08/31 02:16:47;;;;;;;0.90;0.38;;;14.70;99.90;;;;;;5018875;28;20053;-83
2022/08/31 02:19:13;;;;;;;3.25;0.45;;;14.60;99.90;;;;;;5001942;28;20483;-85
2022/08/31 02:21:40;;;;;;;0.65;0.40;;;14.60;99.90;;;;;;5035300;28;20388;-85
2022/08/31 02:24:07;;;;;;;1.83;0.40;;;14.50;99.90;;;;;;5036343;28;20052;-85
2022/08/31 02:26:32;;;;;;;1.58;0.40;;;14.50;99.90;;;;;;5018447;28;20060;-84
2022/08/31 02:28:58;;;;;;;1.08;0.50;;;14.50;99.90;;;;;;5035810;28;20049;-84
2022/08/31 02:31:24;;;;;;;1.02;0.40;;;14.40;99.90;;;;;;5035731;28;20080;-84
2022/08/31 02:33:50;;;;;;;0.95;0.50;;;14.30;99.90;;;;;;5001908;28;20049;-84
2022/08/31 02:36:15;;;;;;;0.63;0.40;;;14.20;99.90;;;;;;5017874;28;20128;-85
2022/08/31 02:38:41;;;;;;;0.73;0.30;;;14.10;99.90;;;;;;5018145;28;20059;-85
2022/08/31 02:41:07;;;;;;;0.50;0.43;;;14.10;99.90;;;;;;5035561;28;20049;-86
2022/08/31 02:43:33;;;;;;;3.10;0.57;;;14.10;99.90;;;;;;5017286;28;20053;-87
2022/08/31 02:46:00;;;;;;;0.90;0.40;;;14.00;99.90;;;;;;5017616;28;20049;-89
2022/08/31 02:48:26;;;;;;;1.75;0.60;;;14.00;99.90;;;;;;5035186;28;20050;-88
2022/08/31 02:50:52;;;;;;;0.50;0.38;;;14.00;99.90;;;;;;5017518;28;20068;-85
2022/08/31 02:53:21;;;;;;;2.35;0.45;;;14.00;99.90;;;;;;5017459;28;20048;-85
2022/08/31 02:55:48;;;;;;;0.60;0.38;;;14.00;99.90;;;;;;5035316;28;20506;-84
2022/08/31 02:58:14;;;;;;;0.73;0.30;;;14.00;99.90;;;;;;5035135;28;20509;-85
2022/08/31 03:00:43;;;;;;;0.95;0.47;;;14.00;99.90;;;;;;5017435;28;20046;-86
2022/08/31 03:03:09;;;;;;;1.38;0.50;;;13.90;99.90;;;;;;5017428;28;20392;-84
2022/08/31 03:05:35;;;;;;;0.50;0.30;;;13.80;99.90;;;;;;5001021;28;20045;-90
2022/08/31 03:08:01;;;;;;;1.05;0.30;;;13.70;99.90;;;;;;5017390;28;20132;-85
2022/08/31 03:10:27;;;;;;;0.55;0.40;;;13.70;99.90;;;;;;5035337;28;20056;-86
2022/08/31 03:12:53;;;;;;;0.57;0.30;;;13.70;99.90;;;;;;5017856;28;20128;-84
2022/08/31 03:15:23;;;;;;;2.33;0.30;;;13.70;99.90;;;;;;5017364;28;20455;-89
2022/08/31 03:17:48;;;;;;;2.35;0.40;;;13.70;99.90;;;;;;5017041;28;20049;-84
2022/08/31 03:20:16;;;;;;;1.98;0.40;;;13.60;99.90;;;;;;5016845;28;20403;-86
2022/08/31 03:22:42;;;;;;;0.85;0.47;;;13.60;99.90;;;;;;5034429;28;20513;-85
2022/08/31 03:25:08;;;;;;;0.90;0.30;;;13.50;99.90;;;;;;5034761;28;20084;-85
2022/08/31 03:27:36;;;;;;;0.57;0.30;;;13.40;99.90;;;;;;5017243;28;20146;-86
2022/08/31 03:30:05;;;;;;;2.45;0.38;;;13.40;99.90;;;;;;5017112;28;20422;-84
2022/08/31 03:32:31;;;;;;;2.70;0.60;;;13.40;99.90;;;;;;5034357;28;20438;-85
2022/08/31 03:34:59;;;;;;;0.90;0.40;;;13.30;99.90;;;;;;5017233;28;20405;-85
2022/08/31 03:37:25;;;;;;;1.23;0.40;;;13.30;99.90;;;;;;5000745;28;20057;-84
2022/08/31 03:39:52;;;;;;;0.75;0.32;;;13.20;99.90;;;;;;5000561;28;20405;-85
2022/08/31 03:42:18;;;;;;;0.45;0.32;;;13.20;99.90;;;;;;5016877;28;20049;-84
2022/08/31 03:44:45;;;;;;;2.03;0.50;;;13.20;99.90;;;;;;5034455;28;20084;-84
2022/08/31 03:47:11;;;;;;;2.88;0.52;;;13.20;99.90;;;;;;5016411;28;20403;-85
2022/08/31 03:49:36;;;;;;;2.30;0.40;;;13.10;99.90;;;;;;4984321;28;20064;-86
2022/08/31 03:52:02;;;;;;;1.63;0.30;;;13.10;99.90;;;;;;5016085;28;20045;-85
2022/08/31 03:54:28;;;;;;;1.80;0.40;;;13.00;99.90;;;;;;5016752;28;20041;-90
2022/08/31 03:56:54;;;;;;;0.70;0.40;;;12.90;99.90;;;;;;5016405;28;20395;-84
2022/08/31 03:59:20;;;;;;;0.73;0.40;;;12.90;99.90;;;;;;5034003;28;20042;-86
2022/08/31 04:01:45;;;;;;;0.65;0.50;;;12.80;99.90;;;;;;5016231;28;20046;-85
2022/08/31 04:04:14;;;;;;;0.80;0.30;;;12.80;99.90;;;;;;5033799;28;20399;-86
2022/08/31 04:06:43;;;;;;;3.30;0.47;;;12.80;99.90;;;;;;5033740;28;20045;-83
2022/08/31 04:09:09;;;;;;;2.35;0.50;;;12.80;99.90;;;;;;5033856;28;20065;-84
2022/08/31 04:11:39;;;;;;;3.50;0.88;;;12.80;99.90;;;;;;5016340;28;20053;-89
2022/08/31 04:14:04;;;;;;;1.35;0.70;;;12.80;99.90;;;;;;4999923;28;20071;-85
2022/08/31 04:16:32;;;;;;;1.13;0.32;;;12.90;99.90;;;;;;5016106;28;20042;-85
2022/08/31 04:18:57;;;;;;;2.53;0.80;;;12.80;99.90;;;;;;5016157;28;20081;-85
2022/08/31 04:21:25;;;;;;;2.67;0.98;;;12.80;99.90;;;;;;5033306;28;20088;-85
2022/08/31 04:23:53;;;;;;;1.85;0.65;;;12.80;99.90;;;;;;5016287;28;20068;-86
2022/08/31 04:26:22;;;;;;;2.97;0.63;;;12.80;99.90;;;;;;5033537;28;20037;-86
2022/08/31 04:28:49;;;;;;;1.42;0.75;;;12.70;99.90;;;;;;5033467;28;20380;-86
2022/08/31 04:31:15;;;;;;;0.50;0.50;;;12.70;99.90;;;;;;5031077;28;20045;-87
2022/08/31 04:33:41;;;;;;;3.33;0.60;;;12.60;99.90;;;;;;5009825;28;20045;-85
2022/08/31 04:36:16;;;;;;;1.58;0.65;;;12.60;99.90;;;;;;5033137;28;20045;-85
2022/08/31 04:38:43;;;;;;;1.83;0.68;;;12.50;99.90;;;;;;4999785;28;20041;-83
2022/08/31 04:41:11;;;;;;;2.17;0.70;;;12.50;99.90;;;;;;5033536;28;20060;-84
2022/08/31 04:43:44;;;;;;;0.85;0.50;;;12.40;99.90;;;;;;5015751;28;20050;-84
2022/08/31 04:46:10;;;;;;;2.13;0.80;;;12.40;99.90;;;;;;5015889;28;20045;-84
2022/08/31 04:48:36;;;;;;;1.83;0.80;;;12.40;99.90;;;;;;5015975;28;20404;-89
2022/08/31 04:51:05;;;;;;;0.73;0.60;;;12.40;99.90;;;;;;4999489;28;20053;-85
2022/08/31 04:53:31;;;;;;;1.75;0.50;;;12.30;99.90;;;;;;5015203;28;20380;-88
2022/08/31 04:55:57;;;;;;;1.83;0.80;;;12.30;99.90;;;;;;5033079;28;20503;-85
2022/08/31 04:58:23;;;;;;;3.08;0.90;;;12.30;99.90;;;;;;5015472;28;20507;-84
2022/08/31 05:00:51;;;;;;;1.38;0.50;;;12.40;99.90;;;;;;5016201;28;20041;-86
2022/08/31 05:03:18;;;;;;;1.27;0.60;;;12.30;99.90;;;;;;5015863;28;20103;-84
2022/08/31 05:05:49;;;;;;;3.10;0.70;;;12.30;99.90;;;;;;5015433;28;20057;-85
2022/08/31 05:08:16;;;;;;;1.75;0.80;;;12.30;99.90;;;;;;5035166;28;20446;-84
2022/08/31 05:10:42;;;;;;;1.23;0.50;;;12.30;99.90;;;;;;5037005;28;20100;-85
2022/08/31 05:13:08;;;;;;;1.23;0.90;;;12.30;99.90;;;;;;5019821;28;20479;-82
2022/08/31 05:15:38;;;;;;;1.33;0.60;;;12.30;99.90;;;;;;5019624;28;20099;-84
2022/08/31 05:18:04;;;;;;;2.58;0.80;;;12.30;99.90;;;;;;5037292;28;20076;-85
2022/08/31 05:20:29;;;;;;;2.13;0.60;;;12.30;99.90;;;;;;4987019;28;20471;-86
2022/08/31 05:22:55;;;;;;;2.67;0.70;;;12.30;99.90;;;;;;5018959;28;20081;-85
2022/08/31 05:25:21;;;;;;;1.83;0.63;;;12.30;99.90;;;;;;5037257;28;20045;-84
2022/08/31 05:27:46;;;;;;;2.13;0.70;;;12.30;99.90;;;;;;5019655;28;20049;-84
2022/08/31 05:30:12;;;;;;;4.70;1.20;;;12.30;99.90;;;;;;5019264;28;20041;-85
2022/08/31 05:32:38;;;;;;;15.35;1.35;;;12.30;99.90;;;;;;5019549;28;20052;-85
2022/08/31 05:35:04;;;;;;;17.52;1.85;;;12.30;99.90;;;;;;5036737;28;20045;-85
2022/08/31 05:37:30;;;;;;;11.45;1.38;;;12.40;99.90;;;;;;5036808;28;20095;-89
2022/08/31 05:39:55;;;;;;;3.65;1.10;;;12.40;99.90;;;;;;5036325;28;20132;-85
2022/08/31 05:42:21;;;;;;;2.88;0.90;;;12.40;99.90;;;;;;5037037;28;20057;-86
2022/08/31 05:44:47;;;;;;;6.28;0.80;;;12.40;99.90;;;;;;5019342;28;20037;-86
2022/08/31 05:47:12;;;;;;;3.92;1.08;;;12.50;99.90;;;;;;5002709;28;20053;-85
2022/08/31 05:49:41;;;;;;;1.13;0.80;;;12.50;99.90;;;;;;5036494;28;20038;-85
2022/08/31 05:52:07;;;;;;;7.85;1.35;;;12.60;99.90;;;;;;5036099;28;20041;-88
2022/08/31 05:54:34;;;;;;;3.38;0.65;;;12.60;99.90;;;;;;5036328;28;20051;-86
2022/08/31 05:57:01;;;;;;;2.58;1.20;;;12.70;99.90;;;;;;5036669;28;20045;-85
2022/08/31 05:59:31;;;;;;;9.77;1.42;;;12.80;99.90;;;;;;5018674;28;20092;-88
2022/08/31 06:01:57;;;;;;;15.40;1.80;;;12.80;99.90;;;;;;5036166;28;20100;-84
2022/08/31 06:04:23;;;;;;;17.58;1.77;;;12.90;99.90;;;;;;5036238;28;20053;-87
2022/08/31 06:06:48;;;;;;;11.55;1.55;;;13.00;99.90;;;;;;5018147;28;20402;-85
2022/08/31 06:09:14;;;;;;;7.03;1.33;;;13.10;99.90;;;;;;5002285;28;20054;-87
2022/08/31 06:11:41;;;;;;;8.48;1.58;;;13.10;99.90;;;;;;5002596;28;20049;-89
2022/08/31 06:14:08;;;;;;;14.30;1.55;;;13.20;99.90;;;;;;5018527;28;20042;-87
2022/08/31 06:16:35;;;;;;;16.27;1.98;;;13.30;99.90;;;;;;5035959;28;20084;-87
2022/08/31 06:19:05;;;;;;;10.50;1.27;;;13.40;99.90;;;;;;5018566;28;20128;-92
2022/08/31 06:21:33;;;;;;;5.63;1.10;;;13.40;99.90;;;;;;5020301;28;20139;-86
2022/08/31 06:24:01;;;;;;;3.35;1.15;;;13.60;99.90;;;;;;5038772;28;20055;-88
2022/08/31 06:26:29;;;;;;;4.60;1.27;;;13.60;99.90;;;;;;5003795;28;20430;-89
2022/08/31 06:28:57;;;;;;;2.35;1.05;;;13.70;99.90;;;;;;5002599;28;20063;-84
2022/08/31 06:31:28;;;;;;;1.35;0.90;;;13.80;99.90;;;;;;5018470;28;20076;-89
2022/08/31 06:33:55;;;;;;;3.05;0.82;;;13.90;99.90;;;;;;5018840;28;20113;-92
2022/08/31 06:36:23;;;;;;;2.97;1.10;;;14.00;99.90;;;;;;5036442;28;20491;-87
2022/08/31 06:38:50;;;;;;;1.58;0.70;;;14.10;99.90;;;;;;5019047;28;20037;-88
2022/08/31 06:41:21;;;;;;;4.45;1.15;;;14.20;99.90;;;;;;5036117;28;20088;-89
2022/08/31 06:43:47;;;;;;;2.10;0.90;;;14.30;99.90;;;;;;5018481;28;20049;-89
2022/08/31 06:46:14;;;;;;;3.42;1.02;;;14.30;99.90;;;;;;5018442;28;20479;-87
2022/08/31 06:48:40;;;;;;;2.05;0.88;;;14.40;99.90;;;;;;5018591;28;20052;-90
2022/08/31 06:51:07;;;;;;;2.78;1.17;;;14.50;99.90;;;;;;5035975;28;20080;-91
2022/08/31 06:53:39;;;;;;;7.07;1.20;;;14.60;99.90;;;;;;5018037;28;20455;-86
2022/08/31 06:56:17;;;;;;;2.40;0.90;;;14.70;99.90;;;;;;5002155;28;20419;-91
2022/08/31 06:58:43;;;;;;;2.15;0.98;;;14.80;99.90;;;;;;5035641;28;20038;-87
2022/08/31 07:01:15;;;;;;;4.38;0.73;;;14.90;99.90;;;;;;5017758;28;20602;-87
2022/08/31 07:03:43;;;;;;;10.90;1.10;;;15.00;99.90;;;;;;5018353;28;20124;-87
2022/08/31 07:06:16;;;;;;;3.28;1.23;;;15.10;99.90;;;;;;5017878;28;20403;-87
2022/08/31 07:08:44;;;;;;;4.53;1.15;;;15.20;99.90;;;;;;5017308;28;20079;-87
2022/08/31 07:11:12;;;;;;;2.05;0.65;;;15.30;99.90;;;;;;5018197;28;20042;-90
2022/08/31 07:13:39;;;;;;;2.42;1.15;;;15.40;99.90;;;;;;5035381;28;20439;-88
2022/08/31 07:16:10;;;;;;;2.72;0.82;;;15.50;99.90;;;;;;5017780;28;20038;-86
2022/08/31 07:18:36;;;;;;;7.95;0.80;;;15.50;99.90;;;;;;5002157;28;20045;-93
2022/08/31 07:21:20;;;;;;;4.82;1.13;;;15.60;99.90;;;;;;5035024;28;20055;-89
2022/08/31 07:23:48;;;;;;;3.35;0.80;;;15.70;99.90;;;;;;5017512;28;20042;-90
2022/08/31 07:26:17;;;;;;;1.75;0.80;;;15.80;99.90;;;;;;5017832;28;20394;-89
2022/08/31 07:28:43;;;;;;;5.75;1.00;;;15.90;99.90;;;;;;5017336;28;20487;-86
2022/08/31 07:31:11;;;;;;;2.67;0.80;;;15.90;99.90;;;;;;5000563;28;20509;-89
2022/08/31 07:33:38;;;;;;;0.98;0.60;;;16.00;99.90;;;;;;5001614;28;20057;-87
2022/08/31 07:36:14;;;;;;;2.58;0.80;;;16.10;99.90;;;;;;5017794;28;20522;-92
2022/08/31 07:44:12;;;;;;;1.95;1.23;;;16.30;99.90;;;;;;5017768;28;20053;-90
2022/08/31 07:46:39;;;;;;;3.20;0.90;;;16.40;99.90;;;;;;5034641;28;20042;-88
2022/08/31 07:49:12;;;;;;;5.30;0.82;;;16.40;99.90;;;;;;5016965;28;20056;-90
2022/08/31 07:51:49;;;;;;;12.93;1.50;;;16.40;99.90;;;;;;5016901;28;20379;-87
2022/08/31 07:54:19;;;;;;;2.25;0.90;;;16.50;99.90;;;;;;5034657;28;20049;-89
2022/08/31 07:56:49;;;;;;;2.50;0.70;;;16.50;99.90;;;;;;5017401;28;20049;-87
2022/08/31 07:59:19;;;;;;;2.63;1.10;;;16.60;99.90;;;;;;5017614;28;20042;-88
2022/08/31 08:01:47;;;;;;;3.63;0.68;;;16.70;99.90;;;;;;5017172;28;20060;-90
2022/08/31 08:04:24;;;;;;;3.30;0.82;;;16.70;99.90;;;;;;5034582;28;20107;-88
2022/08/31 08:06:51;;;;;;;1.52;0.85;;;16.80;99.90;;;;;;5001053;28;20072;-93
2022/08/31 08:09:16;;;;;;;3.50;0.77;;;17.00;99.90;;;;;;5001699;28;20060;-89
2022/08/31 08:11:45;;;;;;;6.13;0.95;;;17.00;99.90;;;;;;5019309;28;20068;-91
2022/08/31 08:14:11;;;;;;;2.53;0.98;;;17.10;99.90;;;;;;5003700;28;20064;-89
2022/08/31 08:16:37;;;;;;;4.32;0.70;;;17.30;99.90;;;;;;4991109;28;20083;-89
2022/08/31 08:19:04;;;;;;;3.30;0.80;;;17.40;99.90;;;;;;5004971;28;20103;-88
2022/08/31 08:21:29;;;;;;;2.70;0.70;;;17.50;99.90;;;;;;5019218;28;20049;-91
2022/08/31 08:23:56;;;;;;;3.40;0.95;;;17.70;99.90;;;;;;5003150;28;20060;-88
2022/08/31 08:26:21;;;;;;;1.67;0.50;;;17.80;99.90;;;;;;5020091;28;20053;-90
2022/08/31 08:28:47;;;;;;;0.90;0.60;;;18.00;99.90;;;;;;5017597;28;20056;-86
2022/08/31 08:31:16;;;;;;;3.72;0.70;;;18.20;99.90;;;;;;5001852;28;20053;-88
2022/08/31 08:33:43;;;;;;;4.03;0.90;;;18.30;99.90;;;;;;5018670;28;20120;-89
2022/08/31 08:36:09;;;;;;;2.97;0.70;;;18.40;99.90;;;;;;5003099;28;20398;-93
2022/08/31 08:38:38;;;;;;;5.30;0.65;;;18.50;99.90;;;;;;5017149;28;20099;-92
2022/08/31 08:41:13;;;;;;;3.47;1.00;;;18.60;99.90;;;;;;5033792;28;20045;-86
2022/08/31 08:43:41;;;;;;;2.53;0.60;;;18.80;99.90;;;;;;5034163;28;20427;-93
2022/08/31 08:46:13;;;;;;;2.40;0.60;;;18.90;99.90;;;;;;5017467;28;20045;-89
2022/08/31 08:48:40;;;;;;;4.63;0.75;;;19.10;99.90;;;;;;5016572;28;20041;-93
2022/08/31 08:51:14;;;;;;;2.63;0.75;;;19.20;99.90;;;;;;4984231;28;20045;-88
2022/08/31 08:53:42;;;;;;;9.48;1.00;;;19.50;99.90;;;;;;5015933;28;20084;-92
2022/08/31 08:56:11;;;;;;;2.13;0.73;;;20.20;98.40;;;;;;5000455;28;20407;-87
2022/08/31 08:58:42;;;;;;;1.95;0.63;;;21.30;87.00;;;;;;5016947;28;20049;-88
2022/08/31 09:01:12;;;;;;;0.90;0.60;;;22.40;75.00;;;;;;5034557;28;20088;-87
2022/08/31 09:04:01;;;;;;;6.85;0.60;;;23.50;65.50;;;;;;5016507;28;20050;-89
2022/08/31 09:07:05;;;;;;;1.10;0.50;;;24.30;62.20;;;;;;5033432;28;20049;-93
2022/08/31 09:10:20;;;;;;;1.27;0.43;;;24.70;60.50;;;;;;4986966;28;20494;-87
2022/08/31 09:13:02;;;;;;;2.65;0.70;;;25.40;59.60;;;;;;4999482;28;20085;-88
2022/08/31 09:15:51;;;;;;;1.40;0.57;;;26.10;56.30;;;;;;5000093;28;20049;-89
2022/08/31 09:18:35;;;;;;;2.13;0.60;;;26.60;55.00;;;;;;5033593;28;20107;-92
2022/08/31 09:21:24;;;;;;;3.13;0.70;;;26.80;53.40;;;;;;4999266;28;20061;-86
2022/08/31 09:24:11;;;;;;;1.63;0.50;;;26.80;53.40;;;;;;4999009;28;20046;-87
2022/08/31 09:27:16;;;;;;;1.23;0.60;;;26.60;53.60;;;;;;5015853;28;20049;-86
2022/08/31 09:30:02;;;;;;;1.27;0.50;;;26.60;53.20;;;;;;5000186;28;20442;-85
2022/08/31 09:32:34;;;;;;;3.78;0.60;;;26.50;54.00;;;;;;4998541;28;20058;-87
2022/08/31 09:35:08;;;;;;;2.55;0.55;;;26.70;54.10;;;;;;5033484;28;20552;-94
2022/08/31 09:37:44;;;;;;;4.65;0.88;;;26.90;53.00;;;;;;5016277;28;20060;-89
2022/08/31 09:40:34;;;;;;;1.85;0.70;;;27.50;51.40;;;;;;4999208;28;20049;-88
2022/08/31 09:43:36;;;;;;;1.87;0.60;;;28.20;50.30;;;;;;5016005;28;20049;-89
2022/08/31 09:46:26;;;;;;;2.05;0.55;;;29.20;47.70;;;;;;5014071;28;20324;-90
2022/08/31 09:48:58;;;;;;;2.70;0.70;;;29.60;46.00;;;;;;4999862;28;20045;-88
2022/08/31 09:51:27;;;;;;;2.13;0.70;;;29.80;46.70;;;;;;5015902;28;20057;-90
2022/08/31 09:56:54;;;;;;;2.10;0.50;;;30.20;45.40;;;;;;5019140;28;20530;-89
2022/08/31 09:59:38;;;;;;;2.85;0.55;;;30.70;45.20;;;;;;5036833;28;20050;-88
2022/08/31 10:02:30;;;;;;;2.22;0.52;;;30.90;45.20;;;;;;5003651;28;20089;-92
2022/08/31 10:05:05;;;;;;;1.42;0.60;;;31.30;43.70;;;;;;5027823;28;20478;-94
2022/08/31 10:08:08;;;;;;;1.27;0.55;;;31.30;43.50;;;;;;5019150;28;20056;-87
2022/08/31 10:10:38;;;;;;;1.80;0.50;;;31.30;42.80;;;;;;5019155;28;20056;-90
2022/08/31 10:13:09;;;;;;;;;;;30.90;42.40;;;;;;5037025;28;20079;-93
2022/08/31 10:15:58;;;;;;;2.83;0.77;;;30.40;44.40;;;;;;5019285;28;19972;-87
2022/08/31 10:19:31;;;;;;;3.83;0.80;;;29.90;43.90;;;;;;5019465;28;20311;-86
2022/08/31 10:22:10;;;;;;;2.30;0.80;;;29.60;44.20;;;;;;4937718;29;20070;-89
2022/08/31 10:24:52;;;;;;;2.65;0.60;;;29.20;44.90;;;;;;4950425;29;20044;-92
2022/08/31 10:27:19;;;;;;;2.97;0.60;;;29.00;46.10;;;;;;4997546;28;20499;-83
2022/08/31 10:29:55;;;;;;;2.10;0.55;;;28.90;46.30;;;;;;5022079;28;20493;-86
2022/08/31 10:32:31;;;;;;;2.08;0.75;;;29.00;45.90;;;;;;5021407;28;20057;-95
2022/08/31 10:35:11;;;;;;;1.60;0.55;;;29.40;45.10;;;;;;5003461;28;20053;-86
2022/08/31 10:37:45;;;;;;;2.08;0.65;;;29.90;43.40;;;;;;5036586;28;20108;-87
2022/08/31 10:40:20;;;;;;;3.42;0.55;;;30.30;43.60;;;;;;5001805;28;20049;-89
2022/08/31 10:43:02;;;;;;;1.00;0.47;;;30.80;42.80;;;;;;5002823;28;20045;-90
2022/08/31 10:45:30;;;;;;;1.67;0.55;;;31.50;42.60;;;;;;5036034;28;20057;-93
2022/08/31 10:47:58;;;;;;;3.95;0.90;;;32.00;42.60;;;;;;5002314;28;20042;-88
2022/08/31 10:50:50;;;;;;;0.68;0.50;;;32.30;40.80;;;;;;5018511;28;20064;-92
2022/08/31 10:53:51;;;;;;;1.83;0.55;;;32.30;40.20;;;;;;5018246;28;20056;-88
2022/08/31 10:56:42;;;;;;;2.83;0.95;;;32.20;40.00;;;;;;5010377;28;20079;-87
2022/08/31 10:59:14;;;;;;;4.40;0.80;;;32.00;38.90;;;;;;5018375;28;20053;-87
2022/08/31 11:01:52;;;;;;;6.25;0.80;;;31.70;40.70;;;;;;5018194;28;20168;-89
2022/08/31 11:04:37;;;;;;;3.35;0.65;;;31.40;40.40;;;;;;5002419;28;20046;-89
2022/08/31 11:07:33;;;;;;;2.17;0.63;;;31.30;41.50;;;;;;5035012;28;20052;-88
2022/08/31 11:10:26;;;;;;;7.18;0.70;;;31.20;40.40;;;;;;5018995;28;20136;-86
2022/08/31 11:13:03;;;;;;;2.28;0.77;;;31.20;41.40;;;;;;5002098;28;20049;-88
2022/08/31 11:15:48;;;;;;;4.32;0.65;;;31.20;41.70;;;;;;5018203;28;20056;-93
2022/08/31 11:18:42;;;;;;;4.07;0.75;;;31.20;41.40;;;;;;5018757;28;20136;-90
2022/08/31 11:21:45;;;;;;;2.83;0.70;;;31.10;41.60;;;;;;5001644;28;20048;-89
2022/08/31 11:24:54;;;;;;;1.52;0.52;;;30.70;42.50;;;;;;5017855;28;20046;-86
2022/08/31 11:27:27;;;;;;;1.38;0.60;;;30.30;42.20;;;;;;4957557;28;20049;-87
2022/08/31 11:29:55;;;;;;;1.75;0.57;;;30.00;43.10;;;;;;5018775;28;20093;-88
2022/08/31 11:32:46;;;;;;;3.72;0.73;;;29.90;43.50;;;;;;5001290;28;20100;-91
2022/08/31 11:35:14;;;;;;;2.08;0.60;;;29.80;43.40;;;;;;5001454;28;20081;-89
2022/08/31 11:37:51;;;;;;;6.72;0.73;;;29.70;43.40;;;;;;5002656;28;20085;-86
2022/08/31 11:40:40;;;;;;;2.28;0.60;;;29.60;43.60;;;;;;5002165;28;20487;-91
2022/08/31 11:43:32;;;;;;;2.92;0.60;;;29.40;42.20;;;;;;5018864;28;20041;-89
2022/08/31 11:46:23;;;;;;;5.85;0.90;;;29.20;41.80;;;;;;5003817;28;20467;-89
2022/08/31 11:48:52;;;;;;;4.82;0.70;;;29.30;41.80;;;;;;5004291;28;20049;-88
2022/08/31 11:51:39;;;;;;;3.50;0.70;;;29.50;43.20;;;;;;5005336;28;20159;-89
2022/08/31 11:54:40;;;;;;;4.13;0.80;;;29.90;42.20;;;;;;5008192;28;20053;-87
2022/08/31 11:57:14;;;;;;;1.48;0.60;;;30.30;41.80;;;;;;4981305;28;20072;-89
2022/08/31 11:59:44;;;;;;;3.83;0.50;;;30.50;42.00;;;;;;5037002;28;20076;-91
2022/08/31 12:02:19;;;;;;;4.95;0.80;;;30.60;42.80;;;;;;5036596;28;20128;-88
2022/08/31 12:04:46;;;;;;;4.80;0.82;;;30.80;41.80;;;;;;5002204;28;20099;-90
2022/08/31 12:07:33;;;;;;;2.78;0.70;;;30.80;41.40;;;;;;5017941;28;20060;-91
2022/08/31 12:10:01;;;;;;;2.58;0.60;;;30.90;42.20;;;;;;5019820;28;20049;-91
2022/08/31 12:12:38;;;;;;;3.97;0.70;;;30.90;42.50;;;;;;5019463;28;20049;-89
2022/08/31 12:15:30;;;;;;;3.78;0.80;;;30.90;42.50;;;;;;5000991;28;20418;-91
2022/08/31 12:18:22;;;;;;;2.15;0.70;;;30.90;42.70;;;;;;5013488;28;20053;-88
2022/08/31 12:24:04;;;;;;;7.35;0.70;;;30.70;41.90;;;;;;5016344;28;20052;-87
2022/08/31 12:26:37;;;;;;;2.83;0.60;;;30.40;41.90;;;;;;4983817;28;20380;-90
2022/08/31 12:29:32;;;;;;;2.15;0.60;;;30.00;42.60;;;;;;5016403;28;20132;-92
2022/08/31 12:32:29;;;;;;;1.60;0.80;;;29.60;42.40;;;;;;5034300;28;20041;-87
2022/08/31 12:35:13;;;;;;;3.10;0.75;;;29.60;42.40;;;;;;5000052;28;20088;-89
2022/08/31 12:37:42;;;;;;;1.77;0.90;;;29.20;42.80;;;;;;5017086;28;20053;-89
2022/08/31 12:40:08;;;;;;;2.33;0.63;;;28.90;42.60;;;;;;5017711;28;20069;-89
2022/08/31 12:42:38;;;;;;;1.77;0.60;;;28.30;43.50;;;;;;5019021;28;20049;-88
2022/08/31 12:45:04;;;;;;;;;;;27.80;44.70;;;;;;5017092;28;20049;-91
2022/08/31 12:48:04;;;;;;;0.77;0.50;;;27.20;44.20;;;;;;5016223;28;19932;-88
2022/08/31 12:50:46;;;;;;;0.88;0.60;;;26.60;44.50;;;;;;4991939;28;20061;-88
2022/08/31 12:53:34;;;;;;;5.07;0.80;;;26.20;45.90;;;;;;5016148;28;20045;-88
2022/08/31 12:56:17;;;;;;;3.40;0.85;;;25.80;46.90;;;;;;5001673;28;20140;-88
2022/08/31 12:58:55;;;;;;;1.65;0.73;;;25.60;47.30;;;;;;5016634;28;20077;-90
2022/08/31 13:01:24;;;;;;;1.25;0.57;;;25.40;47.50;;;;;;5016108;28;20046;-87
2022/08/31 13:03:54;;;;;;;2.00;0.65;;;25.20;48.10;;;;;;5016019;28;20050;-88
2022/08/31 13:06:33;;;;;;;1.10;0.60;;;25.00;48.20;;;;;;5033960;28;20076;-89
2022/08/31 13:08:59;;;;;;;3.05;0.75;;;25.00;49.20;;;;;;5016836;28;20057;-87
2022/08/31 13:11:32;;;;;;;2.88;0.60;;;24.90;48.40;;;;;;5016029;28;20049;-92
2022/08/31 13:14:19;;;;;;;2.80;0.70;;;24.80;48.40;;;;;;5015597;28;20045;-88
2022/08/31 13:17:16;;;;;;;5.57;0.85;;;24.60;48.40;;;;;;5015914;28;20418;-86
2022/08/31 13:19:53;;;;;;;6.07;0.98;;;24.50;48.70;;;;;;5017170;28;20093;-88
2022/08/31 13:22:47;;;;;;;3.38;0.60;;;24.30;49.40;;;;;;5035320;28;20053;-88
2022/08/31 13:25:15;;;;;;;3.63;0.60;;;24.30;50.50;;;;;;5003051;28;20092;-93
2022/08/31 13:27:53;;;;;;;2.25;0.63;;;24.20;51.20;;;;;;5037112;28;20487;-90